createdAt,value
2019-03-16T00:01:56.149Z,71.57
2019-03-16T00:04:15.468Z,71.69
2019-03-16T00:06:45.314Z,71.77
2019-03-16T00:09:15.217Z,71.47
2019-03-16T00:11:45.215Z,72.22
2019-03-16T00:14:15.141Z,71.43
2019-03-16T00:16:45.058Z,71.49
2019-03-16T00:19:14.938Z,71.45
2019-03-16T00:21:45.874Z,70.88
2019-03-16T00:24:16.881Z,71.60
2019-03-16T00:26:46.809Z,71.31
2019-03-16T00:29:16.638Z,71.18
2019-03-16T00:31:46.480Z,71.26
2019-03-16T00:34:16.411Z,70.89
2019-03-16T00:36:46.326Z,70.88
2019-03-16T00:39:16.210Z,70.98
2019-03-16T00:41:46.178Z,70.59
2019-03-16T00:44:16.038Z,71.21
2019-03-16T00:46:45.964Z,70.99
2019-03-16T00:49:15.892Z,76.41
2019-03-16T00:51:45.720Z,70.63
2019-03-16T00:54:15.731Z,71.29
2019-03-16T00:56:45.635Z,71.17
2019-03-16T00:59:15.497Z,70.85
2019-03-16T01:01:45.409Z,70.79
2019-03-16T01:04:15.552Z,70.22
2019-03-16T01:06:45.490Z,69.73
2019-03-16T01:09:15.320Z,70.36
2019-03-16T01:11:45.173Z,70.81
2019-03-16T01:14:15.065Z,70.64
2019-03-16T01:16:44.919Z,69.70
2019-03-16T01:19:14.736Z,70.16
2019-03-16T01:21:44.647Z,69.73
2019-03-16T01:24:14.478Z,70.15
2019-03-16T01:26:44.384Z,70.25
2019-03-16T01:29:14.295Z,70.35
2019-03-16T01:31:44.261Z,69.76
2019-03-16T01:34:14.174Z,70.50
2019-03-16T01:36:43.994Z,70.36
2019-03-16T01:39:14.008Z,70.29
2019-03-16T01:41:43.935Z,69.32
2019-03-16T01:44:15.564Z,70.08
2019-03-16T01:46:45.504Z,69.61
2019-03-16T01:49:15.690Z,70.47
2019-03-16T01:51:47.299Z,70.11
2019-03-16T01:54:17.222Z,69.95
2019-03-16T01:56:47.247Z,69.96
2019-03-16T01:59:17.126Z,70.77
2019-03-16T02:01:49.369Z,70.56
2019-03-16T02:04:18.538Z,70.52
2019-03-16T02:06:48.443Z,69.99
2019-03-16T02:09:18.308Z,70.41
2019-03-16T02:11:48.144Z,70.21
2019-03-16T02:14:18.224Z,70.03
2019-03-16T02:16:48.085Z,70.04
2019-03-16T02:19:18.004Z,69.94
2019-03-16T02:21:48.169Z,70.32
2019-03-16T02:24:18.374Z,69.99
2019-03-16T02:26:48.188Z,70.12
2019-03-16T02:29:18.171Z,69.78
2019-03-16T02:31:48.003Z,70.45
2019-03-16T02:34:17.997Z,70.53
2019-03-16T02:36:54.367Z,70.60
2019-03-16T02:39:24.241Z,70.83
2019-03-16T02:41:54.132Z,71.68
2019-03-16T02:44:23.985Z,70.85
2019-03-16T02:46:53.817Z,70.37
2019-03-16T02:49:23.727Z,70.04
2019-03-16T02:51:53.554Z,70.02
2019-03-16T02:54:23.459Z,69.51
2019-03-16T02:56:53.316Z,69.85
2019-03-16T02:59:23.128Z,69.86
2019-03-16T03:01:53.141Z,69.45
2019-03-16T03:04:22.981Z,69.31
2019-03-16T03:06:53.014Z,70.40
2019-03-16T03:09:22.816Z,70.06
2019-03-16T03:11:52.730Z,70.40
2019-03-16T03:14:22.570Z,69.97
2019-03-16T03:16:52.487Z,69.72
2019-03-16T03:19:22.413Z,69.55
2019-03-16T03:21:52.232Z,69.61
2019-03-16T03:24:22.077Z,69.02
2019-03-16T03:26:51.967Z,68.89
2019-03-16T03:29:21.829Z,68.83
2019-03-16T03:31:51.657Z,68.50
2019-03-16T03:34:21.585Z,68.32
2019-03-16T03:36:51.443Z,68.33
2019-03-16T03:39:21.251Z,68.05
2019-03-16T03:41:51.168Z,68.22
2019-03-16T03:44:21.149Z,67.94
2019-03-16T03:46:51.054Z,67.23
2019-03-16T03:49:20.982Z,67.91
2019-03-16T03:51:50.822Z,67.88
2019-03-16T03:54:20.782Z,67.70
2019-03-16T03:56:50.757Z,67.79
2019-03-16T03:59:20.657Z,67.95
2019-03-16T04:01:50.619Z,67.57
2019-03-16T04:04:20.696Z,67.55
2019-03-16T04:06:50.690Z,67.16
2019-03-16T04:09:20.755Z,67.15
2019-03-16T04:11:50.584Z,68.02
2019-03-16T04:14:20.726Z,67.68
2019-03-16T04:16:50.552Z,67.89
2019-03-16T04:19:20.564Z,66.95
2019-03-16T04:21:50.482Z,67.60
2019-03-16T04:24:20.436Z,67.55
2019-03-16T04:26:50.260Z,67.42
2019-03-16T04:29:20.217Z,67.80
2019-03-16T04:31:50.095Z,66.80
2019-03-16T04:34:29.008Z,67.26
2019-03-16T04:36:51.539Z,67.62
2019-03-16T04:39:21.517Z,67.33
2019-03-16T04:41:51.441Z,67.46
2019-03-16T04:44:21.586Z,67.48
2019-03-16T04:46:51.562Z,66.86
2019-03-16T04:49:21.449Z,67.25
2019-03-16T04:51:51.378Z,67.08
2019-03-16T04:54:21.293Z,67.03
2019-03-16T04:56:51.310Z,66.28
2019-03-16T04:59:21.332Z,65.71
2019-03-16T05:01:51.230Z,66.51
2019-03-16T05:04:21.068Z,66.67
2019-03-16T05:06:51.939Z,66.49
2019-03-16T05:09:21.763Z,66.64
2019-03-16T05:11:51.613Z,66.54
2019-03-16T05:14:21.594Z,66.34
2019-03-16T05:16:51.425Z,66.34
2019-03-16T05:19:21.784Z,65.75
2019-03-16T05:21:51.752Z,65.72
2019-03-16T05:24:21.570Z,65.64
2019-03-16T05:26:51.517Z,65.50
2019-03-16T05:29:21.485Z,65.95
2019-03-16T05:31:51.419Z,65.32
2019-03-16T05:34:21.364Z,65.06
2019-03-16T05:36:51.197Z,64.85
2019-03-16T05:39:21.063Z,65.16
2019-03-16T05:41:50.904Z,65.25
2019-03-16T05:44:20.820Z,65.06
2019-03-16T05:46:50.635Z,64.76
2019-03-16T05:49:21.582Z,64.79
2019-03-16T05:51:51.412Z,64.63
2019-03-16T05:54:21.344Z,64.83
2019-03-16T05:56:51.238Z,64.12
2019-03-16T05:59:21.213Z,64.26
2019-03-16T06:01:51.109Z,63.77
2019-03-16T06:04:21.006Z,64.21
2019-03-16T06:06:50.908Z,63.53
2019-03-16T06:09:20.748Z,63.80
2019-03-16T06:11:50.712Z,63.77
2019-03-16T06:14:20.825Z,63.66
2019-03-16T06:16:50.710Z,63.46
2019-03-16T06:19:20.538Z,63.46
2019-03-16T06:21:50.698Z,63.73
2019-03-16T06:24:20.517Z,63.34
2019-03-16T06:26:50.449Z,63.61
2019-03-16T06:29:20.280Z,63.50
2019-03-16T06:31:50.203Z,63.42
2019-03-16T06:34:20.122Z,63.38
2019-03-16T06:36:50.814Z,63.30
2019-03-16T06:39:20.633Z,63.71
2019-03-16T06:41:50.519Z,63.52
2019-03-16T06:44:20.738Z,63.55
2019-03-16T06:46:50.572Z,63.77
2019-03-16T06:49:20.506Z,63.71
2019-03-16T06:51:50.344Z,63.63
2019-03-16T06:54:20.277Z,63.27
2019-03-16T06:56:50.102Z,63.92
2019-03-16T06:59:20.131Z,63.30
2019-03-16T07:01:50.032Z,63.74
2019-03-16T07:04:20.043Z,63.73
2019-03-16T07:06:49.861Z,63.46
2019-03-16T07:09:19.885Z,63.32
2019-03-16T07:11:49.899Z,63.34
2019-03-16T07:14:19.744Z,61.85
2019-03-16T07:17:01.318Z,63.30
2019-03-16T07:19:21.143Z,63.22
2019-03-16T07:21:51.076Z,62.61
2019-03-16T07:24:20.900Z,62.88
2019-03-16T07:26:50.733Z,62.59
2019-03-16T07:29:20.575Z,62.67
2019-03-16T07:31:50.501Z,62.13
2019-03-16T07:34:20.380Z,62.44
2019-03-16T07:36:50.221Z,62.23
2019-03-16T07:39:21.037Z,61.98
2019-03-16T07:41:50.905Z,61.86
2019-03-16T07:44:20.868Z,61.31
2019-03-16T07:46:50.851Z,62.05
2019-03-16T07:49:20.711Z,61.86
2019-03-16T07:51:50.615Z,61.34
2019-03-16T07:54:20.671Z,61.03
2019-03-16T07:56:50.795Z,62.14
2019-03-16T07:59:20.657Z,61.89
2019-03-16T08:01:50.714Z,61.52
2019-03-16T08:04:20.535Z,61.60
2019-03-16T08:06:50.428Z,61.58
2019-03-16T08:09:20.462Z,60.47
2019-03-16T08:11:50.417Z,61.56
2019-03-16T08:14:21.014Z,60.94
2019-03-16T08:16:50.920Z,61.10
2019-03-16T08:19:20.906Z,61.16
2019-03-16T08:21:50.809Z,60.33
2019-03-16T08:24:20.635Z,60.10
2019-03-16T08:26:50.527Z,60.34
2019-03-16T08:29:20.417Z,60.21
2019-03-16T08:31:50.316Z,60.37
2019-03-16T08:34:20.252Z,60.42
2019-03-16T08:36:50.086Z,60.00
2019-03-16T08:39:19.910Z,60.14
2019-03-16T08:41:49.768Z,58.74
2019-03-16T08:44:19.697Z,58.74
2019-03-16T08:46:49.577Z,58.40
2019-03-16T08:49:19.533Z,58.57
2019-03-16T08:51:49.357Z,58.69
2019-03-16T08:54:19.252Z,58.35
2019-03-16T08:56:49.070Z,58.51
2019-03-16T08:59:19.026Z,57.33
2019-03-16T09:01:48.862Z,57.86
2019-03-16T09:04:18.717Z,57.59
2019-03-16T09:06:52.612Z,57.57
2019-03-16T09:09:21.172Z,57.36
2019-03-16T09:11:51.101Z,57.38
2019-03-16T09:14:20.933Z,57.16
2019-03-16T09:16:50.778Z,57.25
2019-03-16T09:19:20.623Z,57.04
2019-03-16T09:21:51.600Z,56.11
2019-03-16T09:24:21.676Z,55.53
2019-03-16T09:26:51.665Z,55.59
2019-03-16T09:29:22.532Z,55.64
2019-03-16T09:31:52.469Z,55.27
2019-03-16T09:34:22.305Z,55.71
2019-03-16T09:36:52.243Z,55.62
2019-03-16T09:39:22.157Z,55.28
2019-03-16T09:41:52.098Z,53.81
2019-03-16T09:44:23.491Z,54.65
2019-03-16T09:46:53.683Z,54.38
2019-03-16T09:49:23.615Z,54.10
2019-03-16T09:51:53.557Z,52.51
2019-03-16T09:54:23.559Z,53.75
2019-03-16T09:57:01.064Z,53.98
2019-03-16T09:59:25.377Z,54.19
2019-03-16T10:01:55.223Z,54.44
2019-03-16T10:04:25.134Z,53.67
2019-03-16T10:06:55.100Z,53.59
2019-03-16T10:09:24.938Z,53.31
2019-03-16T10:11:54.879Z,53.06
2019-03-16T10:14:24.801Z,52.11
2019-03-16T10:16:54.793Z,52.58
2019-03-16T10:19:24.800Z,53.18
2019-03-16T10:21:54.795Z,52.12
2019-03-16T10:24:24.620Z,51.24
2019-03-16T10:26:54.661Z,51.20
2019-03-16T10:29:24.527Z,51.36
2019-03-16T10:31:54.452Z,51.61
2019-03-16T10:34:24.382Z,51.28
2019-03-16T10:36:54.210Z,50.89
2019-03-16T10:39:24.082Z,50.26
2019-03-16T10:41:53.899Z,50.03
2019-03-16T10:44:23.750Z,49.99
2019-03-16T10:46:53.664Z,48.81
2019-03-16T10:49:23.665Z,49.14
2019-03-16T10:51:53.568Z,48.39
2019-03-16T10:54:23.497Z,49.66
2019-03-16T10:56:53.386Z,49.85
2019-03-16T10:59:23.328Z,49.56
2019-03-16T11:01:53.320Z,51.08
2019-03-16T11:04:23.191Z,50.71
2019-03-16T11:06:53.021Z,50.86
2019-03-16T11:09:22.895Z,51.54
2019-03-16T11:11:52.848Z,50.21
2019-03-16T11:14:22.707Z,50.85
2019-03-16T11:16:52.552Z,51.32
2019-03-16T11:19:22.384Z,52.08
2019-03-16T11:21:52.323Z,52.24
2019-03-16T11:24:22.251Z,51.51
2019-03-16T11:26:52.084Z,52.69
2019-03-16T11:29:21.997Z,52.94
2019-03-16T11:31:51.939Z,53.31
2019-03-16T11:34:21.932Z,52.55
2019-03-16T11:36:51.803Z,51.75
2019-03-16T11:39:21.606Z,51.17
2019-03-16T11:41:51.465Z,50.49
2019-03-16T11:44:21.428Z,50.63
2019-03-16T11:46:51.303Z,49.50
2019-03-16T11:49:21.159Z,50.00
2019-03-16T11:51:50.992Z,49.34
2019-03-16T11:54:20.855Z,49.00
2019-03-16T11:56:50.691Z,48.51
2019-03-16T11:59:21.972Z,48.00
2019-03-16T12:01:52.031Z,47.56
2019-03-16T12:04:21.968Z,48.02
2019-03-16T12:06:51.882Z,47.58
2019-03-16T12:09:21.903Z,47.61
2019-03-16T12:11:51.884Z,46.78
2019-03-16T12:14:21.729Z,46.44
2019-03-16T12:16:51.756Z,45.86
2019-03-16T12:19:21.758Z,46.22
2019-03-16T12:21:51.665Z,46.14
2019-03-16T12:24:21.504Z,45.80
2019-03-16T12:26:51.447Z,46.52
2019-03-16T12:29:33.141Z,46.44
2019-03-16T12:31:53.002Z,46.77
2019-03-16T12:34:22.835Z,46.89
2019-03-16T12:36:52.688Z,47.13
2019-03-16T12:39:22.558Z,46.52
2019-03-16T12:41:52.476Z,47.40
2019-03-16T12:44:22.379Z,47.13
2019-03-16T12:46:52.278Z,46.83
2019-03-16T12:49:22.126Z,46.79
2019-03-16T12:51:51.952Z,46.58
2019-03-16T12:54:21.784Z,47.28
2019-03-16T12:56:51.626Z,47.52
2019-03-16T12:59:21.537Z,46.97
2019-03-16T13:01:51.359Z,46.90
2019-03-16T13:04:21.313Z,46.58
2019-03-16T13:06:52.379Z,46.83
2019-03-16T13:09:22.302Z,46.86
2019-03-16T13:11:52.203Z,46.94
2019-03-16T13:14:22.643Z,46.41
2019-03-16T13:16:52.780Z,46.64
2019-03-16T13:19:22.624Z,45.62
2019-03-16T13:21:52.601Z,45.94
2019-03-16T13:24:22.468Z,45.25
2019-03-16T13:26:52.394Z,44.88
2019-03-16T13:29:23.355Z,44.69
2019-03-16T13:31:53.282Z,44.35
2019-03-16T13:34:23.303Z,44.36
2019-03-16T13:36:53.195Z,42.69
2019-03-16T13:39:23.314Z,43.11
2019-03-16T13:41:53.314Z,43.32
2019-03-16T13:44:23.191Z,43.94
2019-03-16T13:46:53.171Z,44.39
2019-03-16T13:49:23.129Z,42.96
2019-03-16T13:51:52.989Z,43.40
2019-03-16T13:54:23.148Z,42.43
2019-03-16T13:56:52.982Z,41.92
2019-03-16T13:59:22.906Z,41.34
2019-03-16T14:01:52.739Z,41.10
2019-03-16T14:04:22.591Z,41.38
2019-03-16T14:06:52.429Z,41.39
2019-03-16T14:09:22.276Z,41.33
2019-03-16T14:11:52.381Z,41.07
2019-03-16T14:14:22.206Z,40.89
2019-03-16T14:16:52.057Z,40.40
2019-03-16T14:19:22.859Z,40.32
2019-03-16T14:21:52.728Z,39.92
2019-03-16T14:24:22.995Z,39.50
2019-03-16T14:26:53.297Z,39.52
2019-03-16T14:29:23.615Z,38.27
2019-03-16T14:31:53.532Z,38.23
2019-03-16T14:34:23.360Z,37.31
2019-03-16T14:36:53.271Z,37.18
2019-03-16T14:39:23.097Z,36.33
2019-03-16T14:41:53.023Z,36.37
2019-03-16T14:44:22.939Z,35.39
2019-03-16T14:46:52.904Z,34.67
2019-03-16T14:49:22.746Z,34.21
2019-03-16T14:51:52.605Z,34.04
2019-03-16T14:54:22.455Z,33.84
2019-03-16T14:56:53.468Z,33.57
2019-03-16T14:59:24.384Z,34.27
2019-03-16T15:01:54.335Z,34.20
2019-03-16T15:04:24.211Z,33.02
2019-03-16T15:06:54.134Z,31.89
2019-03-16T15:09:25.255Z,32.41
2019-03-16T15:11:55.169Z,32.30
2019-03-16T15:14:25.165Z,31.93
2019-03-16T15:16:55.081Z,31.87
2019-03-16T15:19:25.163Z,31.79
2019-03-16T15:21:54.982Z,31.86
2019-03-16T15:24:24.975Z,32.42
2019-03-16T15:26:54.959Z,32.12
2019-03-16T15:29:24.919Z,32.01
2019-03-16T15:31:54.986Z,32.05
2019-03-16T15:34:24.957Z,32.29
2019-03-16T15:36:54.802Z,32.46
2019-03-16T15:39:26.247Z,32.22
2019-03-16T15:41:56.166Z,32.27
2019-03-16T15:44:26.098Z,32.47
2019-03-16T15:46:55.995Z,31.93
2019-03-16T15:49:25.898Z,32.31
2019-03-16T15:51:55.735Z,32.28
2019-03-16T15:54:25.703Z,32.33
2019-03-16T15:56:55.650Z,32.14
2019-03-16T15:59:25.565Z,32.61
2019-03-16T16:01:55.437Z,32.97
2019-03-16T16:04:25.387Z,33.80
2019-03-16T16:06:55.411Z,33.45
2019-03-16T16:09:25.271Z,33.13
2019-03-16T16:11:55.113Z,31.88
2019-03-16T16:14:25.059Z,32.45
2019-03-16T16:16:54.882Z,32.65
2019-03-16T16:19:24.793Z,32.36
2019-03-16T16:21:54.647Z,31.76
2019-03-16T16:24:24.591Z,31.29
2019-03-16T16:26:54.523Z,31.29
2019-03-16T16:29:24.345Z,31.42
2019-03-16T16:31:54.273Z,31.58
2019-03-16T16:34:24.110Z,31.27
2019-03-16T16:36:54.065Z,31.24
2019-03-16T16:39:24.193Z,31.36
2019-03-16T16:41:54.108Z,31.66
2019-03-16T16:44:23.999Z,32.31
2019-03-16T16:46:53.861Z,32.03
2019-03-16T16:49:23.695Z,32.36
2019-03-16T16:51:53.542Z,32.61
2019-03-16T16:54:23.384Z,32.37
2019-03-16T16:56:53.363Z,32.31
2019-03-16T16:59:23.277Z,32.76
2019-03-16T17:01:53.103Z,33.12
2019-03-16T17:04:22.959Z,33.41
2019-03-16T17:06:52.890Z,33.83
2019-03-16T17:09:22.842Z,34.32
2019-03-16T17:11:52.823Z,34.82
2019-03-16T17:14:22.669Z,35.14
2019-03-16T17:16:52.492Z,35.34
2019-03-16T17:19:22.442Z,35.99
2019-03-16T17:21:52.366Z,36.39
2019-03-16T17:24:22.219Z,36.33
2019-03-16T17:26:52.135Z,36.25
2019-03-16T17:29:22.141Z,37.19
2019-03-16T17:31:52.151Z,37.28
2019-03-16T17:34:22.020Z,37.53
2019-03-16T17:36:51.882Z,37.19
2019-03-16T17:39:21.806Z,37.42
2019-03-16T17:41:51.727Z,37.69
2019-03-16T17:44:21.632Z,37.61
2019-03-16T17:46:51.522Z,37.66
2019-03-16T17:49:21.539Z,38.05
2019-03-16T17:51:51.367Z,38.23
2019-03-16T17:54:22.492Z,38.03
2019-03-16T17:56:52.340Z,38.03
2019-03-16T17:59:24.037Z,38.10
2019-03-16T18:01:55.118Z,38.33
2019-03-16T18:04:27.711Z,38.19
2019-03-16T18:06:57.001Z,38.28
2019-03-16T18:09:26.913Z,38.81
2019-03-16T18:11:56.859Z,39.11
2019-03-16T18:14:26.865Z,38.80
2019-03-16T18:16:56.794Z,39.31
2019-03-16T18:19:26.791Z,39.19
2019-03-16T18:21:56.724Z,39.26
2019-03-16T18:24:26.687Z,39.68
2019-03-16T18:26:56.537Z,39.75
2019-03-16T18:29:26.664Z,39.88
2019-03-16T18:32:07.225Z,40.31
2019-03-16T18:34:28.127Z,40.38
2019-03-16T18:36:58.208Z,41.21
2019-03-16T18:39:28.157Z,40.82
2019-03-16T18:41:58.125Z,40.71
2019-03-16T18:44:27.964Z,41.31
2019-03-16T18:46:57.922Z,41.05
2019-03-16T18:49:27.989Z,41.21
2019-03-16T18:51:58.113Z,41.21
2019-03-16T18:54:28.127Z,41.20
2019-03-16T18:56:58.092Z,41.30
2019-03-16T18:59:28.068Z,41.45
2019-03-16T19:01:57.968Z,41.86
2019-03-16T19:04:27.927Z,42.09
2019-03-16T19:06:58.063Z,42.48
2019-03-16T19:09:28.031Z,42.41
2019-03-16T19:11:57.865Z,42.59
2019-03-16T19:14:27.809Z,42.57
2019-03-16T19:16:57.847Z,42.68
2019-03-16T19:19:27.857Z,42.96
2019-03-16T19:21:57.919Z,42.83
2019-03-16T19:24:27.979Z,43.09
2019-03-16T19:26:57.925Z,43.34
2019-03-16T19:29:27.948Z,43.33
2019-03-16T19:31:57.935Z,43.33
2019-03-16T19:34:28.116Z,43.29
2019-03-16T19:36:58.053Z,43.31
2019-03-16T19:39:28.191Z,43.29
2019-03-16T19:41:58.052Z,43.14
2019-03-16T19:44:27.900Z,43.47
2019-03-16T19:46:57.768Z,43.36
2019-03-16T19:49:27.624Z,43.02
2019-03-16T19:51:57.499Z,42.84
2019-03-16T19:54:27.353Z,42.79
2019-03-16T19:56:57.187Z,42.86
2019-03-16T19:59:27.032Z,43.05
2019-03-16T20:01:56.988Z,43.11
2019-03-16T20:04:36.049Z,43.33
2019-03-16T20:06:58.606Z,43.29
2019-03-16T20:09:28.545Z,43.18
2019-03-16T20:11:58.487Z,43.42
2019-03-16T20:14:28.419Z,43.31
2019-03-16T20:16:58.378Z,43.18
2019-03-16T20:19:28.201Z,42.80
2019-03-16T20:21:58.238Z,42.88
2019-03-16T20:24:28.187Z,42.52
2019-03-16T20:26:58.115Z,42.15
2019-03-16T20:29:27.963Z,41.39
2019-03-16T20:31:58.756Z,40.06
2019-03-16T20:34:31.961Z,39.41
2019-03-16T20:37:00.686Z,37.79
2019-03-16T20:39:30.868Z,37.13
2019-03-16T20:42:01.097Z,37.39
2019-03-16T20:44:31.117Z,36.46
2019-03-16T20:47:00.979Z,35.92
2019-03-16T20:49:30.942Z,35.69
2019-03-16T20:52:00.889Z,35.52
2019-03-16T20:54:30.886Z,35.01
2019-03-16T20:57:00.735Z,35.00
2019-03-16T20:59:30.610Z,35.03
2019-03-16T21:02:00.532Z,34.88
2019-03-16T21:04:30.502Z,35.13
2019-03-16T21:07:00.331Z,35.42
2019-03-16T21:09:30.255Z,35.41
2019-03-16T21:12:00.184Z,35.33
2019-03-16T21:14:30.123Z,35.45
2019-03-16T21:16:59.954Z,35.24
2019-03-16T21:19:29.809Z,35.02
2019-03-16T21:21:59.713Z,35.29
2019-03-16T21:24:30.734Z,34.89
2019-03-16T21:27:00.632Z,34.87
2019-03-16T21:29:30.616Z,35.04
2019-03-16T21:32:00.589Z,34.96
2019-03-16T21:34:33.260Z,34.88
2019-03-16T21:37:02.036Z,34.99
2019-03-16T21:39:31.882Z,35.10
2019-03-16T21:42:01.818Z,34.97
2019-03-16T21:44:31.783Z,35.32
2019-03-16T21:47:01.616Z,35.41
2019-03-16T21:49:31.554Z,35.43
2019-03-16T21:52:02.875Z,35.37
2019-03-16T21:54:33.064Z,35.69
2019-03-16T21:57:03.024Z,35.69
2019-03-16T21:59:33.037Z,35.63
2019-03-16T22:02:02.968Z,35.85
2019-03-16T22:04:32.852Z,36.11
2019-03-16T22:07:03.869Z,36.37
2019-03-16T22:09:33.914Z,36.46
2019-03-16T22:12:03.830Z,36.56
2019-03-16T22:14:33.806Z,36.72
2019-03-16T22:17:03.797Z,36.71
2019-03-16T22:19:34.641Z,37.17
2019-03-16T22:22:04.653Z,37.30
2019-03-16T22:24:34.569Z,37.23
2019-03-16T22:27:04.517Z,37.61
2019-03-16T22:29:34.383Z,37.90
2019-03-16T22:32:04.293Z,38.63
2019-03-16T22:34:34.307Z,37.79
2019-03-16T22:37:04.165Z,38.86
2019-03-16T22:39:34.028Z,38.22
2019-03-16T22:42:04.060Z,37.69
2019-03-16T22:44:33.967Z,38.37
2019-03-16T22:47:04.040Z,39.19
2019-03-16T22:49:33.961Z,37.49
2019-03-16T22:52:04.987Z,37.28
2019-03-16T22:54:34.883Z,37.38
2019-03-16T22:57:04.918Z,37.37
2019-03-16T22:59:34.744Z,38.26
2019-03-16T23:02:05.144Z,38.26
2019-03-16T23:04:35.080Z,38.43
2019-03-16T23:07:05.022Z,39.01
2019-03-16T23:09:36.081Z,39.12
2019-03-16T23:12:06.075Z,39.41
2019-03-16T23:14:36.013Z,40.17
2019-03-16T23:17:05.945Z,39.08
2019-03-16T23:19:35.902Z,39.39
2019-03-16T23:22:05.893Z,39.05
2019-03-16T23:24:35.773Z,39.28
2019-03-16T23:27:05.777Z,39.65
2019-03-16T23:29:35.687Z,39.52
2019-03-16T23:32:05.694Z,39.24
2019-03-16T23:34:35.690Z,39.36
2019-03-16T23:37:05.667Z,39.37
2019-03-16T23:39:36.651Z,39.47
2019-03-16T23:42:06.628Z,39.65
2019-03-16T23:44:36.535Z,40.13
2019-03-16T23:47:06.456Z,39.56
2019-03-16T23:49:36.387Z,40.28
2019-03-16T23:52:06.360Z,37.95
2019-03-16T23:54:36.382Z,37.87
2019-03-16T23:57:06.376Z,38.37
2019-03-16T23:59:36.300Z,38.02
